METAR Data
IDs: Format: Raw Decoded Include TAF

Data at: 1805 UTC 21 Sep 2018

KAPY 211755Z AUTO 14011G15KT 10SM CLR 32/21 A2989 RMK AO2 T03230210
KAPY 211735Z AUTO 13009KT 10SM CLR 32/21 A2989 RMK AO2 T03220214
KAPY 211715Z AUTO 13006G14KT 10SM CLR 31/21 A2990 RMK AO2 T03140210
KAPY 211655Z AUTO 16011G15KT 10SM CLR 31/21 A2990 RMK AO2 T03150211
KAPY 211635Z AUTO 15008G15KT 10SM CLR 31/21 A2990 RMK AO2 T03120211
KAPY 211615Z AUTO 14011G15KT 10SM CLR 31/21 A2991 RMK AO2 T03090210
KAPY 211555Z AUTO 15010G17KT 10SM CLR 30/21 A2990 RMK AO2 T03060211
KAPY 211535Z AUTO 15011G18KT 10SM CLR 30/21 A2990 RMK AO2 T03010212
KAPY 211515Z AUTO 14012G18KT 10SM CLR 30/21 A2990 RMK AO2 T02970216
KAPY 211455Z AUTO 15011G17KT 10SM SCT020 28/21 A2990 RMK AO2 T02900218
KAPY 211435Z AUTO 15009G18KT 10SM SCT019 28/22 A2990 RMK AO2 T02850223
KAPY 211415Z AUTO 14013G18KT 10SM CLR 27/22 A2990 RMK AO2 T02800227
KAPY 211355Z AUTO 14009G14KT 10SM CLR 27/22 A2989 RMK AO2 T02740230
KAPY 211335Z AUTO 14009G15KT 10SM SCT011 26/23 A2989 RMK AO2 T02680235
KAPY 211315Z AUTO 14008KT 10SM SCT011 26/23 A2988 RMK AO2 T02620240
KAPY 211255Z AUTO 14008KT 10SM SCT011 25/23 A2987 RMK AO2 T02570241
KAPY 211235Z AUTO 14006KT 10SM SCT011 25/23 A2987 RMK AO2 T02570241
KAPY 211215Z AUTO 14007KT 10SM SCT011 26/23 A2987 RMK AO2 T02580240
KAPY 211155Z AUTO 14008G14KT 10SM SCT011 26/23 A2986 RMK AO2 T02580241
KAPY 211135Z AUTO 14007KT 10SM BKN011 26/23 A2986 RMK AO2 T02580241
KAPY 211115Z AUTO 13006G14KT 10SM SCT011 26/23 A2985 RMK AO2 T02580241
KAPY 211055Z AUTO 13007KT 10SM SCT013 26/23 A2985 RMK AO2 T02600241
KAPY 211035Z AUTO 14006KT 10SM SCT013 26/23 A2985 RMK AO2 T02600240
KAPY 211015Z AUTO 14006KT 10SM SCT013 26/23 A2986 RMK AO2 T02610235
KAPY 210955Z AUTO 14007KT 10SM SCT013 26/23 A2986 RMK AO2 T02620235
KAPY 210935Z AUTO 14006KT 10SM SCT013 26/23 A2985 RMK AO2 T02630232
KAPY 210915Z AUTO 14007KT 10SM SCT015 26/23 A2985 RMK AO2 T02650231
KAPY 210855Z AUTO 14007KT 10SM CLR 26/22 A2986 RMK AO2 T02660230
KAPY 210835Z AUTO 13010G16KT 10SM CLR 26/22 A2986 RMK AO2 T02670230
KAPY 210815Z AUTO 14009G15KT 10SM CLR 26/23 A2986 RMK AO2 T02670231
KAPY 210755Z AUTO 10SM CLR 26/23 A2987 RMK AO2 T02680231
KAPY 210735Z AUTO 14007G15KT 10SM CLR 27/22 A2987 RMK AO2 T02700230
KAPY 210715Z AUTO 14008KT 10SM CLR 27/23 A2987 RMK AO2 T02700231
KAPY 210655Z AUTO 14010G16KT 10SM CLR 27/23 A2987 RMK AO2 T02710230
KAPY 210635Z AUTO 14006G14KT 10SM CLR 27/22 A2987 RMK AO2 T02710228
KAPY 210615Z AUTO 14010G16KT 10SM CLR 27/22 A2987 RMK AO2 T02730226
KAPY 210555Z AUTO 14011KT 10SM CLR 27/22 A2988 RMK AO2 T02740225
KAPY 210535Z AUTO 14010G16KT 10SM CLR 27/22 A2989 RMK AO2 T02760223
KAPY 210515Z AUTO 14009G15KT 10SM CLR 27/22 A2989 RMK AO2 T02780221
KAPY 210455Z AUTO 14010G15KT 10SM CLR 27/22 A2989 RMK AO2 T02800221
KAPY 210435Z AUTO 14010G19KT 10SM CLR 28/22 A2989 RMK AO2 T02820221
KAPY 210415Z AUTO 14011G16KT 10SM CLR 28/22 A2989 RMK AO2 T02860220
KAPY 210355Z AUTO 14010G17KT 10SM CLR 28/21 A2989 RMK AO2 T02890217
KAPY 210335Z AUTO 13009G16KT 10SM CLR 29/21 A2988 RMK AO2 T02910216
KAPY 210315Z AUTO 14008KT 10SM CLR 29/21 A2987 RMK AO2 T02940216
KAPY 210255Z AUTO 14007KT 10SM CLR 29/21 A2987 RMK AO2 T02960216
KAPY 210235Z AUTO 13009G16KT 10SM CLR 30/21 A2986 RMK AO2 T02990216
KAPY 210215Z AUTO 13009KT 10SM CLR 30/21 A2985 RMK AO2 LTG DSNT SW T03000216
KAPY 210155Z AUTO 13008KT 10SM CLR 30/21 A2985 RMK AO2 T03030217
KAPY 210135Z AUTO 12005KT 10SM CLR 30/21 A2984 RMK AO2 T03050219
KAPY 210115Z AUTO 13005KT 10SM CLR 30/22 A2984 RMK AO2 T03070220
KAPY 210055Z AUTO 12004KT 10SM CLR 31/22 A2983 RMK AO2 T03100220
KAPY 210035Z AUTO 12006KT 10SM CLR 31/21 A2983 RMK AO2 T03130216
KAPY 210015Z AUTO 14005KT 10SM CLR 31/21 A2982 RMK AO2 T03170208
KAPY 202355Z AUTO 14007KT 10SM CLR 32/20 A2982 RMK AO2 T03210205
KAPY 202335Z AUTO 15007KT 10SM CLR 32/20 A2982 RMK AO2 T03250205
KAPY 202315Z AUTO 14009KT 10SM SCT049 32/20 A2981 RMK AO2 T03260204
KAPY 202255Z AUTO 16007KT 10SM SCT049 33/20 A2981 RMK AO2 T03310204
KAPY 202235Z AUTO 15010KT 10SM CLR 33/20 A2981 RMK AO2 T03400201
KAPY 202215Z AUTO 15009G16KT 10SM CLR 33/20 A2981 RMK AO2 T03380200
KAPY 202155Z AUTO 17011G15KT 10SM CLR 34/20 A2982 RMK AO2 LTG DSNT S T03420198
KAPY 202135Z AUTO 16012G15KT 10SM SCT046 SCT060 33/21 A2982 RMK AO2 T03320210
KAPY 202115Z AUTO 14008KT 10SM BKN046 BKN050 33/21 A2983 RMK AO2 T03360210
KAPY 202055Z AUTO 14010G17KT 10SM SCT044 33/20 A2983 RMK AO2 T03410206
KAPY 202035Z AUTO 16009G17KT 10SM SCT042 SCT049 33/20 A2984 RMK AO2 LTG DSNT S AND SW T03380206
KAPY 202015Z AUTO 13010G15KT 10SM SCT040 SCT049 32/21 A2985 RMK AO2 LTG DSNT S T03270209
KAPY 201955Z AUTO 14011G18KT 10SM SCT038 33/21 A2986 RMK AO2 T03320214
KAPY 201935Z AUTO 16012G15KT 10SM SCT038 SCT043 32/21 A2987 RMK AO2 T03290215
KAPY 201915Z AUTO 16009KT 10SM SCT036 SCT044 32/21 A2988 RMK AO2 T03260214
KAPY 201855Z AUTO 14007KT 10SM SCT033 SCT042 31/22 A2989 RMK AO2 T03160221
KAPY 201835Z AUTO 12008KT 10SM SCT031 SCT037 31/22 A2990 RMK AO2 T03100222
KAPY 201815Z AUTO 15006KT 10SM BKN029 BKN036 30/21 A2991 RMK AO2 T03070218
KAPY 201755Z AUTO 14008KT 10SM BKN027 BKN033 BKN039 30/22 A2991 RMK AO2 T03060222
KAPY 201735Z AUTO 16006KT 10SM SCT025 BKN032 BKN037 30/22 A2992 RMK AO2 T03030223
KAPY 201715Z AUTO 14007KT 10SM SCT027 BKN032 30/22 A2993 RMK AO2 T02980224
KAPY 201655Z AUTO 17010G14KT 10SM SCT025 BKN032 29/22 A2993 RMK AO2 T02950223
KAPY 201635Z AUTO 16010KT 10SM BKN025 29/22 A2993 RMK AO2 T02950225
KAPY 201615Z AUTO 15007KT 10SM SCT018 SCT026 28/22 A2993 RMK AO2 T02900226
KAPY 201555Z AUTO 15009KT 10SM BKN016 BKN021 28/22 A2993 RMK AO2 T02880228
KAPY 201535Z AUTO 14010G16KT 10SM BKN014 BKN021 28/23 A2993 RMK AO2 T02900232
KAPY 201515Z AUTO 15008KT 10SM OVC014 27/23 A2993 RMK AO2 LTG DSNT NW T02750234
KAPY 201455Z AUTO 15007KT 10SM OVC012 27/23 A2993 RMK AO2 T02740236
KAPY 201435Z AUTO 14007KT 120V180 10SM SCT012 26/23 A2992 RMK AO2 T02680238
KAPY 201415Z AUTO 14007KT 10SM BKN010 BKN014 BKN100 26/24 A2991 RMK AO2 T02650244
KAPY 201355Z AUTO 14006KT 10SM OVC010 26/24 A2992 RMK AO2 LTG DSNT NW T02610245
KAPY 201335Z AUTO 14005KT 10SM BKN010 26/24 A2991 RMK AO2 T02600246
KAPY 201315Z AUTO 14004KT 10SM CLR 26/24 A2990 RMK AO2 T02580245
KAPY 201255Z AUTO 13005KT 10SM SCT100 25/24 A2990 RMK AO2 T02570245
KAPY 201235Z AUTO 13004KT 10SM OVC100 25/24 A2989 RMK AO2 T02570245
KAPY 201215Z AUTO 13003KT 10SM OVC110 25/24 A2989 RMK AO2 T02570245
KAPY 201155Z AUTO 14004KT 10SM SCT010 BKN110 25/24 A2989 RMK AO2 T02570243
KAPY 201135Z AUTO 13004KT 10SM SCT010 OVC110 26/24 A2989 RMK AO2 T02580243
KAPY 201115Z AUTO 13004KT 10SM SCT010 BKN110 25/24 A2989 RMK AO2 T02570245
KAPY 201055Z AUTO 13004KT 10SM OVC120 25/24 A2989 RMK AO2 T02560242
KAPY 201035Z AUTO 13004KT 10SM OVC110 25/24 A2987 RMK AO2 T02560242
KAPY 201015Z AUTO 12004KT 10SM OVC120 25/23 A2988 RMK AO2 T02550240
KAPY 200955Z AUTO 13005KT 10SM OVC110 25/23 A2988 RMK AO2 T02550238
KAPY 200935Z AUTO 13004KT 10SM OVC120 25/23 A2989 RMK AO2 T02550237
KAPY 200915Z AUTO 13005KT 10SM OVC120 25/23 A2989 RMK AO2 T02550236
KAPY 200855Z AUTO 12004KT 10SM OVC120 25/23 A2990 RMK AO2 T02550235
KAPY 200835Z AUTO 12004KT 10SM BKN120 25/23 A2991 RMK AO2 T02550235
KAPY 200815Z AUTO 13003KT 10SM SCT110 25/23 A2991 RMK AO2 T02550232
KAPY 200755Z AUTO 14003KT 10SM CLR 25/22 A2991 RMK AO2 T02550225
KAPY 200735Z AUTO 12004KT 10SM CLR 25/22 A2991 RMK AO2 T02540225
KAPY 200715Z AUTO 13003KT 10SM CLR 25/22 A2991 RMK AO2 T02560223
KAPY 200655Z AUTO 14005KT 10SM -RA SCT075 SCT100 25/22 A2992 RMK AO2 T02550227
KAPY 200635Z AUTO 15005KT 10SM -RA SCT050 SCT065 BKN100 25/22 A2992 RMK AO2 T02560227
KAPY 200615Z AUTO 15006KT 10SM -RA SCT050 BKN075 BKN090 26/22 A2992 RMK AO2 T02610224